Dayville, Oregon
Current Conditions -  °F | °C
As of 8:15 AM on Thursday 18 Dec 2014 (Local Time) from KGCD Reporting Station
Overcast Overcast  
Wind Chill: 34°   Ceiling: 3500
Heat Index: 37°   Visibility: 10mi
Dew Point: 35°   Wind: 5mph
Humidity: 90%   Direction: 40°NE
Pressure: 30.02"   Gusts: NA
Location:  44.47°N, 119.54°W
Report Text: KGCD 181615Z AUTO 04004KT 10SM OVC035 03/02 A3002 RMK AO2 T00300015
Loading
Personal Weather Stations






























Interactive Weather Map New forecast layout! Learn more

10-Day Weather Forecast

Advertisements
Track Severe Weather on mobile